createdAt,value
2018-07-10T00:00:23.705Z,985.16
2018-07-10T00:01:23.650Z,985.15
2018-07-10T00:02:23.602Z,985.11
2018-07-10T00:03:23.552Z,985.13
2018-07-10T00:04:23.500Z,985.07
2018-07-10T00:05:23.449Z,985.10
2018-07-10T00:06:23.398Z,985.09
2018-07-10T00:07:23.349Z,985.08
2018-07-10T00:08:23.297Z,985.05
2018-07-10T00:09:23.246Z,985.02
2018-07-10T00:10:23.199Z,985.00
2018-07-10T00:11:23.147Z,985.00
2018-07-10T00:12:23.110Z,984.96
2018-07-10T00:13:23.046Z,984.96
2018-07-10T00:14:23.001Z,984.98
2018-07-10T00:15:22.947Z,984.96
2018-07-10T00:16:22.895Z,984.97
2018-07-10T00:17:22.845Z,984.97
2018-07-10T00:18:22.795Z,984.97
2018-07-10T00:19:22.745Z,984.98
2018-07-10T00:20:22.694Z,984.95
2018-07-10T00:21:22.647Z,984.96
2018-07-10T00:22:22.595Z,984.93
2018-07-10T00:23:22.546Z,984.93
2018-07-10T00:24:22.492Z,984.94
2018-07-10T00:25:22.444Z,984.93
2018-07-10T00:26:22.391Z,984.92
2018-07-10T00:27:22.346Z,984.94
2018-07-10T00:28:22.291Z,984.89
2018-07-10T00:29:22.239Z,984.89
2018-07-10T00:30:22.189Z,984.87
2018-07-10T00:31:22.141Z,984.89
2018-07-10T00:32:22.091Z,984.86
2018-07-10T00:33:22.040Z,984.91
2018-07-10T00:34:21.987Z,984.95
2018-07-10T00:35:21.936Z,984.98
2018-07-10T00:36:21.886Z,984.97
2018-07-10T00:37:21.839Z,984.93
2018-07-10T00:38:21.787Z,984.90
2018-07-10T00:39:21.733Z,984.93
2018-07-10T00:40:21.684Z,984.93
2018-07-10T00:41:21.633Z,984.91
2018-07-10T00:42:21.583Z,984.95
2018-07-10T00:43:21.532Z,984.95
2018-07-10T00:44:21.484Z,984.98
2018-07-10T00:45:21.447Z,984.98
2018-07-10T00:46:21.381Z,984.99
2018-07-10T00:47:21.329Z,984.97
2018-07-10T00:48:21.280Z,984.96
2018-07-10T00:49:21.228Z,984.94
2018-07-10T00:50:21.179Z,984.89
2018-07-10T00:51:21.129Z,984.88
2018-07-10T00:52:21.081Z,984.89
2018-07-10T00:53:21.027Z,984.88
2018-07-10T00:54:20.979Z,984.90
2018-07-10T00:55:20.925Z,984.94
2018-07-10T00:56:20.875Z,984.95
2018-07-10T00:57:20.825Z,984.96
2018-07-10T00:58:20.774Z,984.96
2018-07-10T00:59:20.727Z,984.95
2018-07-10T01:00:20.675Z,984.95
2018-07-10T01:01:20.623Z,984.91
2018-07-10T01:02:20.572Z,984.86
2018-07-10T01:03:20.536Z,984.89
2018-07-10T01:04:20.473Z,984.90
2018-07-10T01:05:20.421Z,984.85
2018-07-10T01:06:20.371Z,984.84
2018-07-10T01:07:20.339Z,984.84
2018-07-10T01:08:20.269Z,984.83
2018-07-10T01:09:20.223Z,984.82
2018-07-10T01:10:20.167Z,984.78
2018-07-10T01:11:20.120Z,984.75
2018-07-10T01:12:20.067Z,984.80
2018-07-10T01:13:20.019Z,984.79
2018-07-10T01:14:19.964Z,984.80
2018-07-10T01:15:19.915Z,984.78
2018-07-10T01:16:19.864Z,984.77
2018-07-10T01:17:19.812Z,984.84
2018-07-10T01:18:19.762Z,984.80
2018-07-10T01:19:19.713Z,984.79
2018-07-10T01:20:19.660Z,984.82
2018-07-10T01:21:19.610Z,984.79
2018-07-10T01:22:19.560Z,984.77
2018-07-10T01:23:19.509Z,984.76
2018-07-10T01:24:19.461Z,984.80
2018-07-10T01:25:19.408Z,984.80
2018-07-10T01:26:19.359Z,984.83
2018-07-10T01:27:19.306Z,984.77
2018-07-10T01:28:19.256Z,984.80
2018-07-10T01:29:19.203Z,984.79
2018-07-10T01:30:19.153Z,984.77
2018-07-10T01:31:19.104Z,984.76
2018-07-10T01:32:19.056Z,984.76
2018-07-10T01:33:19.001Z,984.77
2018-07-10T01:34:18.950Z,984.73
2018-07-10T01:35:18.899Z,984.71
2018-07-10T01:36:18.850Z,984.72
2018-07-10T01:37:18.797Z,984.73
2018-07-10T01:38:18.749Z,984.74
2018-07-10T01:39:18.697Z,984.73
2018-07-10T01:40:18.647Z,984.76
2018-07-10T01:41:18.594Z,984.74
2018-07-10T01:42:18.544Z,984.80
2018-07-10T01:43:18.493Z,984.74
2018-07-10T01:44:18.443Z,984.74
2018-07-10T01:45:18.392Z,984.76
2018-07-10T01:46:18.340Z,984.74
2018-07-10T01:47:18.289Z,984.77
2018-07-10T01:48:18.239Z,984.73
2018-07-10T01:49:18.188Z,984.78
2018-07-10T01:50:18.137Z,984.76
2018-07-10T01:51:18.087Z,984.81
2018-07-10T01:52:18.035Z,984.82
2018-07-10T01:53:17.983Z,984.77
2018-07-10T01:54:17.932Z,984.78
2018-07-10T01:55:17.883Z,984.78
2018-07-10T01:56:17.831Z,984.80
2018-07-10T01:57:17.789Z,984.79
2018-07-10T01:58:17.731Z,984.76
2018-07-10T01:59:17.678Z,984.77
2018-07-10T02:00:17.628Z,984.80
2018-07-10T02:01:17.577Z,984.81
2018-07-10T02:02:17.526Z,984.84
2018-07-10T02:03:17.475Z,984.80
2018-07-10T02:04:17.424Z,984.82
2018-07-10T02:05:17.376Z,984.78
2018-07-10T02:06:17.323Z,984.72
2018-07-10T02:07:17.269Z,984.68
2018-07-10T02:08:17.221Z,984.70
2018-07-10T02:09:17.169Z,984.69
2018-07-10T02:10:17.117Z,984.65
2018-07-10T02:11:17.066Z,984.67
2018-07-10T02:12:17.016Z,984.65
2018-07-10T02:13:16.966Z,984.67
2018-07-10T02:14:16.926Z,984.66
2018-07-10T02:15:16.862Z,984.68
2018-07-10T02:16:16.810Z,984.60
2018-07-10T02:17:16.761Z,984.63
2018-07-10T02:18:16.708Z,984.53
2018-07-10T02:19:16.657Z,984.59
2018-07-10T02:20:16.609Z,984.54
2018-07-10T02:21:16.553Z,984.48
2018-07-10T02:22:16.504Z,984.50
2018-07-10T02:23:16.459Z,984.49
2018-07-10T02:24:16.402Z,984.46
2018-07-10T02:25:16.349Z,984.44
2018-07-10T02:26:16.299Z,984.40
2018-07-10T02:27:16.248Z,984.41
2018-07-10T02:28:16.199Z,984.38
2018-07-10T02:29:16.149Z,984.35
2018-07-10T02:30:16.097Z,984.38
2018-07-10T02:31:16.044Z,984.42
2018-07-10T02:32:15.994Z,984.39
2018-07-10T02:33:15.943Z,984.38
2018-07-10T02:34:15.891Z,984.39
2018-07-10T02:35:15.840Z,984.42
2018-07-10T02:36:15.791Z,984.43
2018-07-10T02:37:15.737Z,984.45
2018-07-10T02:38:15.690Z,984.47
2018-07-10T02:39:15.637Z,984.45
2018-07-10T02:40:15.585Z,984.43
2018-07-10T02:41:15.531Z,984.43
2018-07-10T02:42:15.481Z,984.41
2018-07-10T02:43:15.429Z,984.40
2018-07-10T02:44:15.380Z,984.41
2018-07-10T02:45:15.327Z,984.42
2018-07-10T02:46:15.275Z,984.47
2018-07-10T02:47:15.224Z,984.43
2018-07-10T02:48:15.186Z,984.41
2018-07-10T02:49:15.121Z,984.43
2018-07-10T02:50:15.071Z,984.43
2018-07-10T02:51:15.019Z,984.39
2018-07-10T02:52:14.971Z,984.37
2018-07-10T02:53:14.915Z,984.30
2018-07-10T02:54:14.869Z,984.31
2018-07-10T02:55:14.813Z,984.21
2018-07-10T02:56:14.763Z,984.26
2018-07-10T02:57:14.712Z,984.22
2018-07-10T02:58:14.659Z,984.21
2018-07-10T02:59:14.608Z,984.22
2018-07-10T03:00:14.560Z,984.19
2018-07-10T03:01:14.506Z,984.22
2018-07-10T03:02:14.454Z,984.23
2018-07-10T03:03:14.406Z,984.22
2018-07-10T03:04:14.350Z,984.21
2018-07-10T03:05:14.300Z,984.25
2018-07-10T03:06:14.248Z,984.19
2018-07-10T03:07:14.199Z,984.12
2018-07-10T03:08:14.146Z,984.14
2018-07-10T03:09:14.095Z,984.15
2018-07-10T03:10:14.043Z,984.15
2018-07-10T03:11:13.992Z,984.21
2018-07-10T03:12:13.941Z,984.17
2018-07-10T03:13:13.889Z,984.22
2018-07-10T03:14:13.844Z,984.21
2018-07-10T03:15:13.787Z,984.30
2018-07-10T03:16:13.739Z,984.33
2018-07-10T03:17:13.685Z,984.35
2018-07-10T03:18:13.634Z,984.37
2018-07-10T03:19:13.584Z,984.39
2018-07-10T03:20:13.534Z,984.39
2018-07-10T03:21:13.480Z,984.43
2018-07-10T03:22:13.426Z,984.46
2018-07-10T03:23:13.375Z,984.46
2018-07-10T03:24:13.324Z,984.50
2018-07-10T03:25:13.275Z,984.47
2018-07-10T03:26:13.220Z,984.48
2018-07-10T03:27:13.169Z,984.49
2018-07-10T03:28:13.118Z,984.47
2018-07-10T03:29:13.065Z,984.44
2018-07-10T03:30:13.016Z,984.41
2018-07-10T03:31:12.962Z,984.39
2018-07-10T03:32:12.911Z,984.43
2018-07-10T03:33:12.862Z,984.43
2018-07-10T03:34:12.806Z,984.43
2018-07-10T03:35:12.759Z,984.43
2018-07-10T03:36:12.705Z,984.42
2018-07-10T03:37:12.653Z,984.45
2018-07-10T03:38:12.601Z,984.42
2018-07-10T03:39:12.553Z,984.40
2018-07-10T03:40:12.498Z,984.45
2018-07-10T03:41:12.446Z,984.43
2018-07-10T03:42:12.396Z,984.49
2018-07-10T03:43:12.346Z,984.42
2018-07-10T03:44:12.301Z,984.40
2018-07-10T03:45:12.241Z,984.42
2018-07-10T03:46:12.189Z,984.41
2018-07-10T03:47:12.138Z,984.42
2018-07-10T03:48:12.086Z,984.37
2018-07-10T03:49:12.036Z,984.42
2018-07-10T03:50:11.983Z,984.45
2018-07-10T03:51:11.931Z,984.44
2018-07-10T03:52:11.881Z,984.49
2018-07-10T03:53:11.828Z,984.46
2018-07-10T03:54:11.778Z,984.44
2018-07-10T03:55:11.726Z,984.42
2018-07-10T03:56:11.674Z,984.45
2018-07-10T03:57:11.622Z,984.50
2018-07-10T03:58:11.570Z,984.52
2018-07-10T03:59:11.518Z,984.48
2018-07-10T04:00:11.467Z,984.54
2018-07-10T04:01:11.415Z,984.49
2018-07-10T04:02:11.362Z,984.47
2018-07-10T04:03:11.312Z,984.48
2018-07-10T04:04:11.260Z,984.45
2018-07-10T04:05:11.208Z,984.43
2018-07-10T04:06:11.156Z,984.48
2018-07-10T04:07:11.105Z,984.45
2018-07-10T04:08:11.052Z,984.47
2018-07-10T04:09:11.129Z,984.45
2018-07-10T04:10:10.952Z,984.48
2018-07-10T04:11:10.895Z,984.48
2018-07-10T04:12:10.846Z,984.48
2018-07-10T04:13:10.794Z,984.49
2018-07-10T04:14:10.744Z,984.45
2018-07-10T04:15:10.689Z,984.50
2018-07-10T04:16:10.637Z,984.50
2018-07-10T04:17:10.586Z,984.46
2018-07-10T04:18:10.535Z,984.40
2018-07-10T04:19:10.483Z,984.46
2018-07-10T04:20:10.429Z,984.43
2018-07-10T04:21:10.378Z,984.48
2018-07-10T04:22:10.324Z,984.49
2018-07-10T04:23:10.275Z,984.41
2018-07-10T04:24:10.223Z,984.47
2018-07-10T04:25:10.171Z,984.50
2018-07-10T04:26:10.121Z,984.47
2018-07-10T04:27:10.067Z,984.48
2018-07-10T04:28:10.015Z,984.43
2018-07-10T04:29:09.963Z,984.46
2018-07-10T04:30:09.914Z,984.43
2018-07-10T04:31:09.860Z,984.40
2018-07-10T04:32:09.807Z,984.41
2018-07-10T04:33:09.755Z,984.36
2018-07-10T04:34:09.706Z,984.34
2018-07-10T04:35:09.662Z,984.37
2018-07-10T04:36:09.603Z,984.33
2018-07-10T04:37:09.552Z,984.32
2018-07-10T04:38:09.506Z,984.35
2018-07-10T04:39:09.449Z,984.40
2018-07-10T04:40:09.396Z,984.41
2018-07-10T04:41:09.344Z,984.41
2018-07-10T04:42:09.293Z,984.36
2018-07-10T04:43:09.243Z,984.32
2018-07-10T04:44:09.201Z,984.32
2018-07-10T04:45:09.139Z,984.30
2018-07-10T04:46:09.086Z,984.31
2018-07-10T04:47:09.035Z,984.30
2018-07-10T04:48:08.990Z,984.28
2018-07-10T04:49:09.058Z,984.27
2018-07-10T04:50:08.883Z,984.31
2018-07-10T04:51:08.830Z,984.30
2018-07-10T04:52:08.781Z,984.29
2018-07-10T04:53:08.730Z,984.34
2018-07-10T04:54:08.678Z,984.37
2018-07-10T04:55:08.651Z,984.40
2018-07-10T04:56:08.578Z,984.36
2018-07-10T04:57:08.524Z,984.36
2018-07-10T04:58:08.476Z,984.35
2018-07-10T04:59:08.422Z,984.37
2018-07-10T05:00:08.371Z,984.39
2018-07-10T05:01:08.321Z,984.38
2018-07-10T05:02:08.268Z,984.36
2018-07-10T05:03:08.218Z,984.40
2018-07-10T05:04:08.166Z,984.40
2018-07-10T05:05:08.116Z,984.35
2018-07-10T05:06:08.063Z,984.37
2018-07-10T05:07:08.012Z,984.38
2018-07-10T05:08:07.961Z,984.36
2018-07-10T05:09:07.913Z,984.37
2018-07-10T05:10:07.858Z,984.36
2018-07-10T05:11:07.810Z,984.31
2018-07-10T05:12:07.818Z,984.31
2018-07-10T05:13:07.704Z,984.31
2018-07-10T05:14:07.654Z,984.35
2018-07-10T05:15:07.602Z,984.33
2018-07-10T05:16:07.557Z,984.32
2018-07-10T05:17:07.501Z,984.35
2018-07-10T05:18:07.449Z,984.35
2018-07-10T05:19:07.406Z,984.31
2018-07-10T05:20:07.349Z,984.36
2018-07-10T05:21:07.300Z,984.34
2018-07-10T05:22:07.247Z,984.28
2018-07-10T05:23:07.253Z,984.27
2018-07-10T05:24:07.147Z,984.26
2018-07-10T05:25:07.092Z,984.30
2018-07-10T05:26:07.043Z,984.27
2018-07-10T05:27:06.991Z,984.27
2018-07-10T05:28:06.941Z,984.22
2018-07-10T05:29:06.922Z,984.21
2018-07-10T05:30:06.838Z,984.26
2018-07-10T05:31:06.791Z,984.22
2018-07-10T05:32:06.740Z,984.27
2018-07-10T05:33:06.691Z,984.28
2018-07-10T05:34:06.638Z,984.31
2018-07-10T05:35:06.593Z,984.29
2018-07-10T05:36:06.538Z,984.27
2018-07-10T05:37:06.519Z,984.27
2018-07-10T05:38:06.436Z,984.27
2018-07-10T05:39:06.385Z,984.26
2018-07-10T05:40:06.336Z,984.28
2018-07-10T05:41:06.287Z,984.30
2018-07-10T05:42:06.233Z,984.31
2018-07-10T05:43:06.189Z,984.32
2018-07-10T05:44:06.134Z,984.28
2018-07-10T05:45:06.082Z,984.28
2018-07-10T05:46:06.032Z,984.30
2018-07-10T05:47:05.988Z,984.27
2018-07-10T05:48:05.932Z,984.22
2018-07-10T05:49:05.883Z,984.25
2018-07-10T05:50:05.833Z,984.23
2018-07-10T05:51:05.782Z,984.22
2018-07-10T05:52:05.756Z,984.18
2018-07-10T05:53:05.682Z,984.16
2018-07-10T05:54:05.634Z,984.13
2018-07-10T05:55:05.580Z,984.11
2018-07-10T05:56:05.530Z,984.11
2018-07-10T05:57:05.480Z,984.06
2018-07-10T05:58:05.429Z,984.01
2018-07-10T05:59:05.381Z,984.05
2018-07-10T06:00:05.335Z,984.00
2018-07-10T06:01:05.281Z,984.07
2018-07-10T06:02:05.230Z,984.04
2018-07-10T06:03:05.182Z,984.07
2018-07-10T06:04:05.131Z,984.08
2018-07-10T06:05:05.081Z,984.07
2018-07-10T06:06:05.034Z,984.08
2018-07-10T06:07:04.980Z,984.05
2018-07-10T06:08:04.932Z,984.12
2018-07-10T06:09:04.880Z,984.08
2018-07-10T06:10:04.830Z,984.11
2018-07-10T06:11:04.780Z,984.09
2018-07-10T06:12:04.732Z,984.05
2018-07-10T06:13:04.682Z,984.08
2018-07-10T06:14:04.651Z,984.07
2018-07-10T06:15:04.583Z,984.07
2018-07-10T06:16:04.534Z,984.12
2018-07-10T06:17:04.481Z,984.11
2018-07-10T06:18:04.433Z,984.12
2018-07-10T06:19:04.381Z,984.17
2018-07-10T06:20:04.368Z,984.18
2018-07-10T06:21:04.280Z,984.21
2018-07-10T06:22:04.238Z,984.17
2018-07-10T06:23:04.181Z,984.21
2018-07-10T06:24:04.133Z,984.18
2018-07-10T06:25:04.081Z,984.16
2018-07-10T06:26:04.034Z,984.14
2018-07-10T06:27:03.987Z,984.15
2018-07-10T06:28:03.932Z,984.15
2018-07-10T06:29:03.882Z,984.13
2018-07-10T06:30:03.836Z,984.14
2018-07-10T06:31:03.784Z,984.10
2018-07-10T06:32:03.735Z,984.11
2018-07-10T06:33:03.684Z,984.11
2018-07-10T06:34:03.634Z,984.14
2018-07-10T06:35:03.585Z,984.12
2018-07-10T06:36:03.536Z,984.02
2018-07-10T06:37:03.485Z,983.99
2018-07-10T06:38:03.438Z,983.98
2018-07-10T06:39:03.386Z,984.04
2018-07-10T06:40:03.337Z,984.01
2018-07-10T06:41:03.287Z,983.98
2018-07-10T06:42:03.241Z,983.96
2018-07-10T06:43:03.189Z,983.92
2018-07-10T06:44:03.139Z,983.96
2018-07-10T06:45:03.088Z,983.97
2018-07-10T06:46:03.048Z,983.94
2018-07-10T06:47:02.990Z,983.94
2018-07-10T06:48:02.949Z,983.97
2018-07-10T06:49:02.892Z,983.93
2018-07-10T06:50:02.843Z,983.95
2018-07-10T06:51:02.795Z,983.97
2018-07-10T06:52:02.755Z,983.99
2018-07-10T06:53:02.863Z,983.97
2018-07-10T06:54:02.649Z,984.01
2018-07-10T06:55:02.599Z,983.99
2018-07-10T06:56:02.548Z,983.98
2018-07-10T06:57:02.497Z,984.08
2018-07-10T06:58:02.452Z,984.03
2018-07-10T06:59:02.405Z,984.08
2018-07-10T07:00:02.353Z,984.09
2018-07-10T07:01:02.306Z,984.09
2018-07-10T07:02:02.253Z,984.04
2018-07-10T07:03:02.203Z,984.09
2018-07-10T07:04:02.153Z,984.05
2018-07-10T07:05:02.104Z,984.03
2018-07-10T07:06:02.058Z,984.04
2018-07-10T07:07:02.006Z,984.03
2018-07-10T07:08:02.053Z,984.07
2018-07-10T07:09:01.907Z,984.01
2018-07-10T07:10:01.863Z,983.98
2018-07-10T07:11:01.835Z,983.98
2018-07-10T07:12:01.761Z,983.99
2018-07-10T07:13:01.711Z,983.95
2018-07-10T07:14:01.664Z,983.98
2018-07-10T07:15:01.619Z,983.98
2018-07-10T07:16:01.565Z,983.94
2018-07-10T07:17:01.516Z,984.00
2018-07-10T07:18:01.467Z,983.95
2018-07-10T07:19:01.417Z,983.98
2018-07-10T07:20:01.369Z,984.00
2018-07-10T07:21:01.318Z,984.02
2018-07-10T07:22:01.269Z,984.06
2018-07-10T07:23:01.224Z,984.06
2018-07-10T07:24:01.172Z,984.04
2018-07-10T07:25:01.123Z,984.03
2018-07-10T07:26:01.078Z,984.06
2018-07-10T07:27:01.030Z,984.07
2018-07-10T07:28:00.978Z,984.06
2018-07-10T07:29:00.926Z,984.07
2018-07-10T07:30:00.878Z,984.04
2018-07-10T07:31:00.830Z,984.05
2018-07-10T07:32:00.781Z,984.01
2018-07-10T07:33:00.732Z,984.00
2018-07-10T07:34:00.681Z,983.99
2018-07-10T07:35:00.640Z,983.99
2018-07-10T07:36:00.583Z,984.00
2018-07-10T07:37:00.533Z,984.00
2018-07-10T07:38:00.486Z,984.05
2018-07-10T07:39:00.441Z,983.97
2018-07-10T07:40:00.387Z,983.99
2018-07-10T07:41:00.335Z,984.01
2018-07-10T07:42:00.287Z,984.00
2018-07-10T07:43:00.241Z,984.02
2018-07-10T07:44:00.234Z,984.03
2018-07-10T07:45:00.141Z,984.03
2018-07-10T07:46:00.095Z,984.05
2018-07-10T07:47:00.042Z,984.06
2018-07-10T07:47:59.994Z,984.03
2018-07-10T07:48:59.942Z,984.05
2018-07-10T07:49:59.894Z,984.06
2018-07-10T07:50:59.845Z,984.07
2018-07-10T07:51:59.797Z,984.06
2018-07-10T07:52:59.749Z,984.07
2018-07-10T07:53:59.701Z,984.06
2018-07-10T07:54:59.649Z,984.05
2018-07-10T07:55:59.604Z,984.05
2018-07-10T07:56:59.550Z,984.02
2018-07-10T07:57:59.501Z,984.02
2018-07-10T07:58:59.452Z,984.00
2018-07-10T07:59:59.403Z,983.98
2018-07-10T08:00:59.353Z,983.97
2018-07-10T08:01:59.306Z,984.03
2018-07-10T08:02:59.256Z,983.94
2018-07-10T08:03:59.207Z,983.92
2018-07-10T08:04:59.156Z,983.91
2018-07-10T08:05:59.109Z,983.85
2018-07-10T08:06:59.064Z,983.83
2018-07-10T08:07:59.012Z,983.87
2018-07-10T08:08:58.962Z,983.82
2018-07-10T08:09:58.916Z,983.85
2018-07-10T08:10:58.863Z,983.86
2018-07-10T08:11:58.816Z,983.83
2018-07-10T08:12:58.766Z,983.86
2018-07-10T08:13:58.719Z,983.86
2018-07-10T08:14:58.670Z,983.83
2018-07-10T08:15:58.622Z,983.84
2018-07-10T08:16:58.571Z,983.84
2018-07-10T08:17:58.524Z,983.82
2018-07-10T08:18:58.476Z,983.84
2018-07-10T08:19:58.426Z,983.87
2018-07-10T08:20:58.379Z,983.88
2018-07-10T08:21:58.328Z,983.85
2018-07-10T08:22:58.281Z,983.89
2018-07-10T08:23:58.231Z,983.89
2018-07-10T08:24:58.181Z,983.90
2018-07-10T08:25:58.154Z,983.90
2018-07-10T08:26:58.085Z,983.83
2018-07-10T08:27:58.045Z,983.88
2018-07-10T08:28:57.987Z,983.93
2018-07-10T08:29:57.938Z,983.86
2018-07-10T08:30:57.892Z,983.80
2018-07-10T08:31:57.841Z,983.83
2018-07-10T08:32:57.793Z,983.84
2018-07-10T08:33:57.812Z,983.87
2018-07-10T08:34:57.696Z,983.88
2018-07-10T08:35:57.649Z,983.88
2018-07-10T08:36:57.602Z,983.89
2018-07-10T08:37:57.550Z,983.83
2018-07-10T08:38:57.501Z,983.79
2018-07-10T08:39:57.453Z,983.79
2018-07-10T08:40:57.405Z,983.70
2018-07-10T08:41:57.359Z,983.62
2018-07-10T08:42:57.310Z,983.66
2018-07-10T08:43:57.262Z,983.62
2018-07-10T08:44:57.214Z,983.67
2018-07-10T08:45:57.163Z,983.64
2018-07-10T08:46:57.119Z,983.65
2018-07-10T08:47:57.069Z,983.58
2018-07-10T08:48:57.019Z,983.59
2018-07-10T08:49:56.973Z,983.56
2018-07-10T08:50:56.923Z,983.53
2018-07-10T08:51:56.876Z,983.58
2018-07-10T08:52:56.828Z,983.61
2018-07-10T08:53:56.784Z,983.61
2018-07-10T08:54:56.732Z,983.58
2018-07-10T08:55:56.685Z,983.53
2018-07-10T08:56:56.639Z,983.51
2018-07-10T08:57:56.589Z,983.53
2018-07-10T08:58:56.539Z,983.49
2018-07-10T08:59:56.554Z,983.49
2018-07-10T09:00:56.444Z,983.48
2018-07-10T09:01:56.398Z,983.45
2018-07-10T09:02:56.350Z,983.52
2018-07-10T09:03:56.301Z,983.46
2018-07-10T09:04:56.254Z,983.45
2018-07-10T09:05:56.208Z,983.45
2018-07-10T09:06:56.166Z,983.40
2018-07-10T09:07:56.159Z,983.41
2018-07-10T09:08:56.066Z,983.41
2018-07-10T09:09:56.019Z,983.42
2018-07-10T09:10:55.972Z,983.41
2018-07-10T09:11:55.929Z,983.44
2018-07-10T09:12:55.881Z,983.46
2018-07-10T09:13:55.878Z,983.40
2018-07-10T09:14:55.783Z,983.42
2018-07-10T09:15:55.733Z,983.41
2018-07-10T09:16:55.689Z,983.38
2018-07-10T09:17:55.645Z,983.42
2018-07-10T09:18:55.590Z,983.37
2018-07-10T09:19:55.543Z,983.41
2018-07-10T09:20:55.493Z,983.42
2018-07-10T09:21:55.447Z,983.40
2018-07-10T09:22:55.397Z,983.42
2018-07-10T09:23:55.352Z,983.46
2018-07-10T09:24:55.303Z,983.53
2018-07-10T09:25:55.254Z,983.54
2018-07-10T09:26:55.206Z,983.59
2018-07-10T09:27:55.158Z,983.64
2018-07-10T09:28:55.113Z,983.71
2018-07-10T09:29:55.062Z,983.75
2018-07-10T09:30:55.015Z,983.80
2018-07-10T09:31:54.965Z,983.88
2018-07-10T09:32:54.917Z,983.90
2018-07-10T09:33:54.907Z,983.87
2018-07-10T09:34:54.820Z,983.85
2018-07-10T09:35:54.771Z,983.88
2018-07-10T09:36:54.721Z,983.88
2018-07-10T09:37:54.673Z,983.86
2018-07-10T09:38:54.626Z,983.84
2018-07-10T09:39:54.626Z,983.83
2018-07-10T09:40:54.524Z,983.83
2018-07-10T09:41:54.476Z,983.85
2018-07-10T09:42:54.427Z,983.93
2018-07-10T09:43:54.406Z,983.94
2018-07-10T09:44:54.326Z,984.05
2018-07-10T09:45:54.281Z,984.09
2018-07-10T09:46:54.256Z,984.10
2018-07-10T09:47:54.178Z,984.05
2018-07-10T09:48:54.128Z,984.03
2018-07-10T09:49:54.080Z,984.00
2018-07-10T09:50:54.032Z,984.03
2018-07-10T09:51:53.981Z,984.04
2018-07-10T09:52:53.933Z,984.05
2018-07-10T09:53:53.881Z,984.04
2018-07-10T09:54:53.896Z,984.01
2018-07-10T09:55:53.783Z,983.98
2018-07-10T09:56:53.734Z,983.93
2018-07-10T09:57:53.684Z,983.94
2018-07-10T09:58:53.635Z,983.95
2018-07-10T09:59:53.585Z,983.94
2018-07-10T10:00:53.536Z,983.91
2018-07-10T10:01:53.498Z,983.81
2018-07-10T10:02:53.438Z,983.81
2018-07-10T10:03:53.392Z,983.83
2018-07-10T10:04:53.339Z,983.76
2018-07-10T10:05:53.291Z,983.81
2018-07-10T10:06:53.241Z,983.79
2018-07-10T10:07:53.193Z,983.77
2018-07-10T10:08:53.142Z,983.76
2018-07-10T10:09:53.094Z,983.80
2018-07-10T10:10:53.046Z,983.78
2018-07-10T10:11:52.998Z,983.73
2018-07-10T10:12:52.949Z,983.74
2018-07-10T10:13:52.898Z,983.75
2018-07-10T10:14:52.852Z,983.66
2018-07-10T10:15:52.802Z,983.65
2018-07-10T10:16:52.751Z,983.65
2018-07-10T10:17:52.702Z,983.70
2018-07-10T10:18:52.654Z,983.67
2018-07-10T10:19:52.604Z,983.69
2018-07-10T10:20:52.557Z,983.63
2018-07-10T10:21:52.508Z,983.62
2018-07-10T10:22:52.464Z,983.62
2018-07-10T10:23:52.411Z,983.64
2018-07-10T10:24:52.362Z,983.63
2018-07-10T10:25:52.322Z,983.61
2018-07-10T10:26:52.264Z,983.59
2018-07-10T10:27:52.217Z,983.59
2018-07-10T10:28:52.168Z,983.53
2018-07-10T10:29:52.120Z,983.63
2018-07-10T10:30:52.071Z,983.58
2018-07-10T10:31:52.023Z,983.50
2018-07-10T10:32:51.973Z,983.50
2018-07-10T10:33:51.927Z,983.55
2018-07-10T10:34:51.878Z,983.55
2018-07-10T10:35:51.859Z,983.54
2018-07-10T10:36:51.781Z,983.45
2018-07-10T10:37:51.735Z,983.48
2018-07-10T10:38:51.687Z,983.46
2018-07-10T10:39:51.640Z,983.48
2018-07-10T10:40:51.588Z,983.52
2018-07-10T10:41:51.541Z,983.45
2018-07-10T10:42:51.493Z,983.46
2018-07-10T10:43:51.444Z,983.39
2018-07-10T10:44:51.397Z,983.40
2018-07-10T10:45:51.345Z,983.35
2018-07-10T10:46:51.302Z,983.41
2018-07-10T10:47:51.248Z,983.39
2018-07-10T10:48:51.197Z,983.43
2018-07-10T10:49:51.155Z,983.43
2018-07-10T10:50:51.102Z,983.41
2018-07-10T10:51:51.051Z,983.46
2018-07-10T10:52:51.001Z,983.36
2018-07-10T10:53:50.955Z,983.39
2018-07-10T10:54:50.963Z,983.43
2018-07-10T10:55:50.854Z,983.41
2018-07-10T10:56:50.806Z,983.42
2018-07-10T10:57:50.755Z,983.37
2018-07-10T10:58:50.713Z,983.43
2018-07-10T10:59:50.657Z,983.42
2018-07-10T11:00:50.612Z,983.35
2018-07-10T11:01:50.561Z,983.37
2018-07-10T11:02:50.512Z,983.37
2018-07-10T11:03:50.464Z,983.41
2018-07-10T11:04:50.414Z,983.37
2018-07-10T11:05:50.365Z,983.33
2018-07-10T11:06:50.317Z,983.41
2018-07-10T11:07:50.267Z,983.40
2018-07-10T11:08:50.218Z,983.40
2018-07-10T11:09:50.304Z,983.44
2018-07-10T11:10:50.122Z,983.47
2018-07-10T11:11:50.074Z,983.51
2018-07-10T11:12:50.022Z,983.53
2018-07-10T11:13:49.980Z,983.55
2018-07-10T11:14:49.925Z,983.49
2018-07-10T11:15:49.877Z,983.52
2018-07-10T11:16:49.827Z,983.51
2018-07-10T11:17:49.779Z,983.48
2018-07-10T11:18:49.729Z,983.59
2018-07-10T11:19:49.682Z,983.57
2018-07-10T11:20:49.631Z,983.57
2018-07-10T11:21:49.587Z,983.62
2018-07-10T11:22:49.532Z,983.63
2018-07-10T11:23:49.484Z,983.68
2018-07-10T11:24:49.434Z,983.69
2018-07-10T11:25:49.388Z,983.68
2018-07-10T11:26:49.336Z,983.74
2018-07-10T11:27:49.287Z,983.73
2018-07-10T11:28:49.239Z,983.74
2018-07-10T11:29:49.188Z,983.77
2018-07-10T11:30:49.139Z,983.82
2018-07-10T11:31:49.092Z,983.79
2018-07-10T11:32:49.040Z,983.75
2018-07-10T11:33:48.992Z,983.77
2018-07-10T11:34:48.942Z,983.85
2018-07-10T11:35:48.893Z,983.84
2018-07-10T11:36:48.845Z,983.88
2018-07-10T11:37:48.794Z,983.85
2018-07-10T11:38:48.745Z,983.85
2018-07-10T11:39:48.697Z,983.73
2018-07-10T11:40:48.646Z,983.77
2018-07-10T11:41:48.604Z,983.82
2018-07-10T11:42:48.553Z,983.77
2018-07-10T11:43:48.498Z,983.78
2018-07-10T11:44:48.447Z,983.75
2018-07-10T11:45:48.515Z,983.76
2018-07-10T11:46:48.351Z,983.78
2018-07-10T11:47:48.299Z,983.78
2018-07-10T11:48:48.253Z,983.86
2018-07-10T11:49:48.200Z,983.87
2018-07-10T11:50:48.152Z,983.88
2018-07-10T11:51:48.152Z,983.86
2018-07-10T11:52:48.051Z,983.84
2018-07-10T11:53:48.004Z,983.81
2018-07-10T11:54:47.952Z,983.78
2018-07-10T11:55:47.902Z,983.82
2018-07-10T11:56:47.852Z,983.78
2018-07-10T11:57:47.802Z,983.82
2018-07-10T11:58:47.752Z,983.82
2018-07-10T11:59:47.703Z,983.83
2018-07-10T12:00:47.652Z,983.81
2018-07-10T12:01:47.613Z,983.83
2018-07-10T12:02:47.554Z,983.76
2018-07-10T12:03:47.503Z,983.76
2018-07-10T12:04:47.503Z,983.76
2018-07-10T12:05:47.404Z,983.76
2018-07-10T12:06:47.356Z,983.73
2018-07-10T12:07:47.306Z,983.72
2018-07-10T12:08:47.257Z,983.69
2018-07-10T12:09:47.206Z,983.72
2018-07-10T12:10:47.155Z,983.76
2018-07-10T12:11:47.107Z,983.75
2018-07-10T12:12:47.063Z,983.70
2018-07-10T12:13:47.012Z,983.68
2018-07-10T12:14:46.959Z,983.70
2018-07-10T12:15:46.908Z,983.67
2018-07-10T12:16:46.858Z,983.75
2018-07-10T12:17:46.811Z,983.69
2018-07-10T12:18:46.759Z,983.62
2018-07-10T12:19:46.712Z,983.65
2018-07-10T12:20:46.693Z,983.59
2018-07-10T12:21:46.611Z,983.59
2018-07-10T12:22:46.563Z,983.57
2018-07-10T12:23:46.514Z,983.49
2018-07-10T12:24:46.465Z,983.58
2018-07-10T12:25:46.415Z,983.50
2018-07-10T12:26:47.470Z,983.45
2018-07-10T12:27:46.319Z,983.50